sensor_id;sensor_type;location;lat;lon;timestamp;pressure;altitude;pressure_sealevel;temperature;humidity
59588;BME280;45412;54.472;18.464;2023-05-19T00:02:53;101293.92;;;4.24;87.14
59588;BME280;45412;54.472;18.464;2023-05-19T00:05:44;101294.95;;;4.25;87.25
59588;BME280;45412;54.472;18.464;2023-05-19T00:08:33;101294.41;;;4.25;87.07
59588;BME280;45412;54.472;18.464;2023-05-19T00:11:27;101294.26;;;4.25;86.91
59588;BME280;45412;54.472;18.464;2023-05-19T00:14:15;101294.31;;;4.24;86.61
59588;BME280;45412;54.472;18.464;2023-05-19T00:17:04;101293.31;;;4.21;86.54
59588;BME280;45412;54.472;18.464;2023-05-19T00:19:53;101295.88;;;4.18;86.62
59588;BME280;45412;54.472;18.464;2023-05-19T00:22:41;101296.48;;;4.15;86.55
59588;BME280;45412;54.472;18.464;2023-05-19T00:25:31;101298.30;;;4.14;86.82
59588;BME280;45412;54.472;18.464;2023-05-19T00:28:20;101300.46;;;4.12;86.69
59588;BME280;45412;54.472;18.464;2023-05-19T00:31:08;101307.04;;;4.09;86.54
59588;BME280;45412;54.472;18.464;2023-05-19T00:33:56;101311.30;;;4.07;86.84
59588;BME280;45412;54.472;18.464;2023-05-19T00:36:45;101312.79;;;4.05;87.08
59588;BME280;45412;54.472;18.464;2023-05-19T00:39:33;101307.11;;;4.01;87.47
59588;BME280;45412;54.472;18.464;2023-05-19T00:42:22;101305.27;;;3.98;87.92
59588;BME280;45412;54.472;18.464;2023-05-19T00:45:10;101302.80;;;3.99;88.36
59588;BME280;45412;54.472;18.464;2023-05-19T00:47:59;101302.46;;;3.98;88.32
59588;BME280;45412;54.472;18.464;2023-05-19T00:50:49;101305.31;;;3.97;88.05
59588;BME280;45412;54.472;18.464;2023-05-19T00:53:39;101307.83;;;3.96;88.00
59588;BME280;45412;54.472;18.464;2023-05-19T00:56:28;101304.85;;;3.95;87.89
59588;BME280;45412;54.472;18.464;2023-05-19T00:59:16;101306.82;;;3.93;87.78
59588;BME280;45412;54.472;18.464;2023-05-19T01:02:05;101304.98;;;3.90;87.72
59588;BME280;45412;54.472;18.464;2023-05-19T01:04:55;101305.23;;;3.88;87.86
59588;BME280;45412;54.472;18.464;2023-05-19T01:07:44;101308.66;;;3.85;88.31
59588;BME280;45412;54.472;18.464;2023-05-19T01:10:34;101306.00;;;3.80;88.56
59588;BME280;45412;54.472;18.464;2023-05-19T01:13:23;101304.02;;;3.75;88.75
59588;BME280;45412;54.472;18.464;2023-05-19T01:16:39;101304.27;;;3.73;89.12
59588;BME280;45412;54.472;18.464;2023-05-19T01:26:29;101308.44;;;3.69;89.85
59588;BME280;45412;54.472;18.464;2023-05-19T01:33:04;101308.81;;;3.68;90.45
59588;BME280;45412;54.472;18.464;2023-05-19T01:35:55;101310.58;;;3.67;90.43
59588;BME280;45412;54.472;18.464;2023-05-19T01:38:45;101308.35;;;3.65;90.78
59588;BME280;45412;54.472;18.464;2023-05-19T01:41:35;101310.17;;;3.63;90.77
59588;BME280;45412;54.472;18.464;2023-05-19T01:44:25;101308.14;;;3.61;90.78
59588;BME280;45412;54.472;18.464;2023-05-19T01:47:13;101309.39;;;3.59;91.27
59588;BME280;45412;54.472;18.464;2023-05-19T01:50:03;101309.05;;;3.59;91.42
59588;BME280;45412;54.472;18.464;2023-05-19T01:52:51;101310.11;;;3.58;91.17
59588;BME280;45412;54.472;18.464;2023-05-19T01:55:50;101308.34;;;3.60;91.49
59588;BME280;45412;54.472;18.464;2023-05-19T01:58:47;101308.30;;;3.61;91.49
59588;BME280;45412;54.472;18.464;2023-05-19T02:01:51;101305.68;;;3.61;91.45
59588;BME280;45412;54.472;18.464;2023-05-19T02:04:56;101304.61;;;3.61;91.35
59588;BME280;45412;54.472;18.464;2023-05-19T02:07:58;101306.55;;;3.61;91.03
59588;BME280;45412;54.472;18.464;2023-05-19T02:11:02;101303.40;;;3.61;91.43
59588;BME280;45412;54.472;18.464;2023-05-19T02:13:56;101304.34;;;3.58;91.21
59588;BME280;45412;54.472;18.464;2023-05-19T02:16:48;101300.35;;;3.56;91.13
59588;BME280;45412;54.472;18.464;2023-05-19T02:19:38;101298.94;;;3.57;91.27
59588;BME280;45412;54.472;18.464;2023-05-19T02:22:30;101297.88;;;3.57;91.31
59588;BME280;45412;54.472;18.464;2023-05-19T02:25:18;101299.62;;;3.57;91.11
59588;BME280;45412;54.472;18.464;2023-05-19T02:28:07;101301.52;;;3.58;91.28
59588;BME280;45412;54.472;18.464;2023-05-19T02:30:55;101302.91;;;3.59;91.33
59588;BME280;45412;54.472;18.464;2023-05-19T02:33:43;101306.28;;;3.58;91.06
59588;BME280;45412;54.472;18.464;2023-05-19T02:36:34;101307.17;;;3.57;91.31
59588;BME280;45412;54.472;18.464;2023-05-19T02:39:26;101301.95;;;3.56;91.51
59588;BME280;45412;54.472;18.464;2023-05-19T02:42:17;101298.29;;;3.55;91.40
59588;BME280;45412;54.472;18.464;2023-05-19T02:45:05;101295.48;;;3.55;91.41
59588;BME280;45412;54.472;18.464;2023-05-19T02:47:54;101294.57;;;3.56;91.58
59588;BME280;45412;54.472;18.464;2023-05-19T02:50:45;101292.05;;;3.58;91.66
59588;BME280;45412;54.472;18.464;2023-05-19T02:53:34;101292.12;;;3.62;91.85
59588;BME280;45412;54.472;18.464;2023-05-19T02:56:25;101293.10;;;3.64;91.72
59588;BME280;45412;54.472;18.464;2023-05-19T02:59:13;101293.61;;;3.65;91.84
59588;BME280;45412;54.472;18.464;2023-05-19T03:02:04;101289.39;;;3.66;91.83
59588;BME280;45412;54.472;18.464;2023-05-19T03:04:52;101288.86;;;3.65;91.52
59588;BME280;45412;54.472;18.464;2023-05-19T03:07:40;101290.23;;;3.67;92.12
59588;BME280;45412;54.472;18.464;2023-05-19T03:10:29;101294.43;;;3.73;92.33
59588;BME280;45412;54.472;18.464;2023-05-19T03:13:17;101284.91;;;3.80;92.36
59588;BME280;45412;54.472;18.464;2023-05-19T03:16:06;101285.71;;;3.89;92.42
59588;BME280;45412;54.472;18.464;2023-05-19T03:18:56;101291.94;;;3.98;92.24
59588;BME280;45412;54.472;18.464;2023-05-19T03:21:44;101291.45;;;4.08;92.57
59588;BME280;45412;54.472;18.464;2023-05-19T03:24:33;101287.92;;;4.20;92.16
59588;BME280;45412;54.472;18.464;2023-05-19T03:27:22;101286.34;;;4.31;91.97
59588;BME280;45412;54.472;18.464;2023-05-19T03:30:12;101284.36;;;4.43;91.73
59588;BME280;45412;54.472;18.464;2023-05-19T03:33:12;101288.24;;;4.53;91.25
59588;BME280;45412;54.472;18.464;2023-05-19T03:36:05;101288.29;;;4.62;91.09
59588;BME280;45412;54.472;18.464;2023-05-19T03:38:57;101287.02;;;4.74;91.20
59588;BME280;45412;54.472;18.464;2023-05-19T03:41:46;101289.63;;;4.85;91.05
59588;BME280;45412;54.472;18.464;2023-05-19T03:44:34;101292.89;;;4.98;91.00
59588;BME280;45412;54.472;18.464;2023-05-19T03:47:22;101290.27;;;5.13;91.02
59588;BME280;45412;54.472;18.464;2023-05-19T03:50:31;101285.04;;;5.27;90.51
59588;BME280;45412;54.472;18.464;2023-05-19T03:53:32;101289.91;;;5.43;90.23
59588;BME280;45412;54.472;18.464;2023-05-19T03:56:22;101293.86;;;5.55;89.65
59588;BME280;45412;54.472;18.464;2023-05-19T03:59:11;101298.16;;;5.67;89.56
59588;BME280;45412;54.472;18.464;2023-05-19T04:01:59;101301.32;;;5.81;89.50
59588;BME280;45412;54.472;18.464;2023-05-19T04:04:48;101300.98;;;5.95;89.11
59588;BME280;45412;54.472;18.464;2023-05-19T04:07:38;101304.29;;;6.10;88.81
59588;BME280;45412;54.472;18.464;2023-05-19T04:10:27;101300.52;;;6.26;88.35
59588;BME280;45412;54.472;18.464;2023-05-19T04:13:15;101297.27;;;6.41;88.17
59588;BME280;45412;54.472;18.464;2023-05-19T04:16:05;101294.89;;;6.56;87.51
59588;BME280;45412;54.472;18.464;2023-05-19T04:18:54;101297.80;;;6.70;86.76
59588;BME280;45412;54.472;18.464;2023-05-19T04:21:44;101295.98;;;6.85;86.08
59588;BME280;45412;54.472;18.464;2023-05-19T04:24:33;101293.30;;;6.98;85.13
59588;BME280;45412;54.472;18.464;2023-05-19T04:27:22;101291.15;;;7.11;84.91
59588;BME280;45412;54.472;18.464;2023-05-19T04:30:11;101290.20;;;7.24;83.88
59588;BME280;45412;54.472;18.464;2023-05-19T04:33:00;101289.73;;;7.35;83.17
59588;BME280;45412;54.472;18.464;2023-05-19T04:35:52;101293.89;;;7.49;82.59
59588;BME280;45412;54.472;18.464;2023-05-19T04:38:40;101294.93;;;7.65;82.07
59588;BME280;45412;54.472;18.464;2023-05-19T04:41:29;101294.05;;;7.84;81.42
59588;BME280;45412;54.472;18.464;2023-05-19T04:44:18;101290.91;;;8.02;80.63
59588;BME280;45412;54.472;18.464;2023-05-19T04:47:09;101292.11;;;8.21;79.55
59588;BME280;45412;54.472;18.464;2023-05-19T04:49:58;101292.89;;;8.42;78.75
59588;BME280;45412;54.472;18.464;2023-05-19T04:52:51;101292.73;;;8.67;77.58
59588;BME280;45412;54.472;18.464;2023-05-19T04:55:40;101293.83;;;8.98;76.63
59588;BME280;45412;54.472;18.464;2023-05-19T04:58:28;101293.75;;;9.27;75.36
59588;BME280;45412;54.472;18.464;2023-05-19T05:01:19;101292.95;;;9.46;74.11
59588;BME280;45412;54.472;18.464;2023-05-19T05:04:15;101294.30;;;9.63;74.00
59588;BME280;45412;54.472;18.464;2023-05-19T05:07:04;101298.70;;;9.80;73.28
59588;BME280;45412;54.472;18.464;2023-05-19T05:09:56;101296.23;;;10.03;72.37
59588;BME280;45412;54.472;18.464;2023-05-19T05:12:47;101297.77;;;10.33;71.57
59588;BME280;45412;54.472;18.464;2023-05-19T05:15:37;101300.98;;;10.63;70.48
59588;BME280;45412;54.472;18.464;2023-05-19T05:18:32;101300.83;;;11.02;68.88
59588;BME280;45412;54.472;18.464;2023-05-19T05:21:22;101299.43;;;11.49;68.06
59588;BME280;45412;54.472;18.464;2023-05-19T05:24:11;101298.48;;;11.90;65.54
59588;BME280;45412;54.472;18.464;2023-05-19T05:27:00;101292.36;;;12.30;64.51
59588;BME280;45412;54.472;18.464;2023-05-19T05:29:51;101291.23;;;12.72;62.48
59588;BME280;45412;54.472;18.464;2023-05-19T05:32:40;101291.52;;;13.09;60.37
59588;BME280;45412;54.472;18.464;2023-05-19T05:35:37;101292.55;;;13.49;58.95
59588;BME280;45412;54.472;18.464;2023-05-19T05:38:26;101290.40;;;13.97;58.10
59588;BME280;45412;54.472;18.464;2023-05-19T05:41:17;101288.33;;;14.42;55.83
59588;BME280;45412;54.472;18.464;2023-05-19T05:44:06;101286.35;;;14.83;54.35
59588;BME280;45412;54.472;18.464;2023-05-19T05:46:55;101291.41;;;15.15;51.86
59588;BME280;45412;54.472;18.464;2023-05-19T05:49:44;101288.66;;;15.30;49.94
59588;BME280;45412;54.472;18.464;2023-05-19T05:52:36;101290.15;;;15.54;50.17
59588;BME280;45412;54.472;18.464;2023-05-19T05:55:29;101285.02;;;16.08;49.65
59588;BME280;45412;54.472;18.464;2023-05-19T05:58:24;101283.68;;;16.65;48.47
59588;BME280;45412;54.472;18.464;2023-05-19T06:01:39;101280.56;;;17.38;45.46
59588;BME280;45412;54.472;18.464;2023-05-19T06:04:31;101280.31;;;18.12;43.88
59588;BME280;45412;54.472;18.464;2023-05-19T06:07:20;101275.85;;;18.77;42.40
59588;BME280;45412;54.472;18.464;2023-05-19T06:10:12;101279.69;;;19.17;40.82
59588;BME280;45412;54.472;18.464;2023-05-19T06:13:16;101280.64;;;19.41;40.88
59588;BME280;45412;54.472;18.464;2023-05-19T06:16:19;101280.56;;;19.40;39.17
59588;BME280;45412;54.472;18.464;2023-05-19T06:19:08;101279.40;;;19.42;39.53
59588;BME280;45412;54.472;18.464;2023-05-19T06:22:06;101279.83;;;19.57;39.16
59588;BME280;45412;54.472;18.464;2023-05-19T06:25:05;101282.48;;;19.72;38.97
59588;BME280;45412;54.472;18.464;2023-05-19T06:27:56;101276.42;;;19.70;37.97
59588;BME280;45412;54.472;18.464;2023-05-19T06:30:45;101279.42;;;19.78;38.15
59588;BME280;45412;54.472;18.464;2023-05-19T06:33:57;101283.83;;;19.94;37.75
59588;BME280;45412;54.472;18.464;2023-05-19T06:36:46;101275.63;;;20.31;37.58
59588;BME280;45412;54.472;18.464;2023-05-19T06:39:37;101278.79;;;20.95;37.05
59588;BME280;45412;54.472;18.464;2023-05-19T06:42:30;101274.09;;;21.67;35.35
59588;BME280;45412;54.472;18.464;2023-05-19T06:45:33;101275.77;;;22.19;34.16
59588;BME280;45412;54.472;18.464;2023-05-19T06:48:24;101272.60;;;22.75;33.29
59588;BME280;45412;54.472;18.464;2023-05-19T06:51:15;101273.53;;;23.25;32.92
59588;BME280;45412;54.472;18.464;2023-05-19T06:54:11;101276.14;;;23.71;32.43
59588;BME280;45412;54.472;18.464;2023-05-19T06:57:15;101271.27;;;24.26;31.60
59588;BME280;45412;54.472;18.464;2023-05-19T07:00:09;101267.19;;;24.73;30.99
59588;BME280;45412;54.472;18.464;2023-05-19T07:03:16;101262.55;;;25.30;28.67
59588;BME280;45412;54.472;18.464;2023-05-19T07:06:14;101259.40;;;25.96;28.38
59588;BME280;45412;54.472;18.464;2023-05-19T07:09:06;101257.64;;;26.71;27.51
59588;BME280;45412;54.472;18.464;2023-05-19T07:11:58;101264.47;;;27.42;26.51
59588;BME280;45412;54.472;18.464;2023-05-19T07:14:59;101265.61;;;27.67;25.57
59588;BME280;45412;54.472;18.464;2023-05-19T07:18:04;101263.98;;;27.70;24.77
59588;BME280;45412;54.472;18.464;2023-05-19T07:20:58;101262.52;;;27.93;25.04
59588;BME280;45412;54.472;18.464;2023-05-19T07:23:49;101263.11;;;27.94;24.98
59588;BME280;45412;54.472;18.464;2023-05-19T07:26:49;101263.90;;;27.69;25.02
59588;BME280;45412;54.472;18.464;2023-05-19T07:29:44;101260.08;;;27.92;25.21
59588;BME280;45412;54.472;18.464;2023-05-19T07:32:33;101257.77;;;28.15;24.76
59588;BME280;45412;54.472;18.464;2023-05-19T07:35:37;101255.34;;;28.29;24.73
59588;BME280;45412;54.472;18.464;2023-05-19T07:38:29;101253.42;;;28.16;24.42
59588;BME280;45412;54.472;18.464;2023-05-19T07:41:23;101257.80;;;28.01;24.66
59588;BME280;45412;54.472;18.464;2023-05-19T07:44:17;101254.18;;;27.68;25.09
59588;BME280;45412;54.472;18.464;2023-05-19T07:47:06;101254.34;;;27.57;25.82
59588;BME280;45412;54.472;18.464;2023-05-19T07:49:57;101256.77;;;27.48;25.36
59588;BME280;45412;54.472;18.464;2023-05-19T07:52:58;101254.02;;;27.43;25.08
59588;BME280;45412;54.472;18.464;2023-05-19T07:55:55;101251.58;;;27.59;24.84
59588;BME280;45412;54.472;18.464;2023-05-19T07:58:47;101252.26;;;27.25;25.28
59588;BME280;45412;54.472;18.464;2023-05-19T08:01:50;101237.52;;;26.45;26.24
59588;BME280;45412;54.472;18.464;2023-05-19T08:04:42;101252.71;;;26.13;25.86
59588;BME280;45412;54.472;18.464;2023-05-19T08:07:51;101251.54;;;25.54;26.32
59588;BME280;45412;54.472;18.464;2023-05-19T08:10:46;101253.13;;;25.30;27.00
59588;BME280;45412;54.472;18.464;2023-05-19T08:13:48;101247.04;;;25.40;27.12
59588;BME280;45412;54.472;18.464;2023-05-19T08:16:37;101252.73;;;25.27;27.02
59588;BME280;45412;54.472;18.464;2023-05-19T08:19:38;101243.09;;;25.29;27.47
59588;BME280;45412;54.472;18.464;2023-05-19T08:22:26;101249.82;;;25.57;27.39
59588;BME280;45412;54.472;18.464;2023-05-19T08:25:19;101248.70;;;25.59;27.06
59588;BME280;45412;54.472;18.464;2023-05-19T08:28:09;101243.23;;;25.35;27.35
59588;BME280;45412;54.472;18.464;2023-05-19T08:31:03;101243.65;;;25.02;27.88
59588;BME280;45412;54.472;18.464;2023-05-19T08:34:01;101247.60;;;24.31;29.04
59588;BME280;45412;54.472;18.464;2023-05-19T08:36:53;101252.04;;;23.55;29.43
59588;BME280;45412;54.472;18.464;2023-05-19T08:39:46;101239.23;;;22.87;30.85
59588;BME280;45412;54.472;18.464;2023-05-19T08:42:37;101249.85;;;22.41;32.11
59588;BME280;45412;54.472;18.464;2023-05-19T08:45:29;101249.89;;;21.91;32.45
59588;BME280;45412;54.472;18.464;2023-05-19T08:48:29;101245.35;;;21.36;33.08
59588;BME280;45412;54.472;18.464;2023-05-19T08:55:14;101244.63;;;20.21;35.38
59588;BME280;45412;54.472;18.464;2023-05-19T08:58:06;101250.06;;;19.97;36.45
59588;BME280;45412;54.472;18.464;2023-05-19T09:00:56;101251.68;;;19.74;37.36
59588;BME280;45412;54.472;18.464;2023-05-19T09:03:47;101252.63;;;19.53;37.72
59588;BME280;45412;54.472;18.464;2023-05-19T09:06:37;101255.80;;;19.39;38.66
59588;BME280;45412;54.472;18.464;2023-05-19T09:09:31;101251.52;;;19.30;39.29
59588;BME280;45412;54.472;18.464;2023-05-19T09:12:20;101254.94;;;19.20;39.07
59588;BME280;45412;54.472;18.464;2023-05-19T09:15:09;101251.76;;;19.04;39.56
59588;BME280;45412;54.472;18.464;2023-05-19T09:18:12;101252.69;;;18.94;40.22
59588;BME280;45412;54.472;18.464;2023-05-19T09:21:01;101256.17;;;18.91;40.55
59588;BME280;45412;54.472;18.464;2023-05-19T09:23:50;101257.88;;;18.93;40.70
59588;BME280;45412;54.472;18.464;2023-05-19T09:26:41;101262.56;;;18.92;40.75
59588;BME280;45412;54.472;18.464;2023-05-19T09:29:30;101259.23;;;18.80;40.43
59588;BME280;45412;54.472;18.464;2023-05-19T09:32:24;101260.70;;;18.66;39.75
59588;BME280;45412;54.472;18.464;2023-05-19T09:35:17;101261.58;;;18.58;40.32
59588;BME280;45412;54.472;18.464;2023-05-19T09:38:08;101260.70;;;18.52;40.80
59588;BME280;45412;54.472;18.464;2023-05-19T09:41:00;101255.03;;;18.53;41.25
59588;BME280;45412;54.472;18.464;2023-05-19T09:43:54;101246.04;;;18.53;41.47
59588;BME280;45412;54.472;18.464;2023-05-19T09:46:48;101249.98;;;18.42;40.93
59588;BME280;45412;54.472;18.464;2023-05-19T09:49:45;101248.50;;;18.30;41.61
59588;BME280;45412;54.472;18.464;2023-05-19T09:52:37;101247.29;;;18.12;41.91
59588;BME280;45412;54.472;18.464;2023-05-19T09:55:27;101245.34;;;17.88;42.12
59588;BME280;45412;54.472;18.464;2023-05-19T09:58:19;101248.14;;;17.72;42.65
59588;BME280;45412;54.472;18.464;2023-05-19T10:01:08;101247.38;;;17.54;42.97
59588;BME280;45412;54.472;18.464;2023-05-19T10:03:56;101248.65;;;17.38;43.12
59588;BME280;45412;54.472;18.464;2023-05-19T10:06:45;101243.21;;;17.20;43.02
59588;BME280;45412;54.472;18.464;2023-05-19T10:09:35;101245.19;;;16.99;43.38
59588;BME280;45412;54.472;18.464;2023-05-19T10:12:25;101243.27;;;16.81;44.20
59588;BME280;45412;54.472;18.464;2023-05-19T10:15:17;101243.60;;;16.69;44.61
59588;BME280;45412;54.472;18.464;2023-05-19T10:18:12;101241.39;;;16.57;44.69
59588;BME280;45412;54.472;18.464;2023-05-19T10:21:03;101245.80;;;16.56;44.86
59588;BME280;45412;54.472;18.464;2023-05-19T10:23:54;101245.22;;;16.43;45.08
59588;BME280;45412;54.472;18.464;2023-05-19T10:26:59;101247.70;;;16.35;45.34
59588;BME280;45412;54.472;18.464;2023-05-19T10:29:50;101248.07;;;16.32;46.04
59588;BME280;45412;54.472;18.464;2023-05-19T10:32:42;101247.92;;;16.32;46.89
59588;BME280;45412;54.472;18.464;2023-05-19T10:39:02;101245.72;;;16.22;47.13
59588;BME280;45412;54.472;18.464;2023-05-19T10:45:21;101232.56;;;16.04;47.92
59588;BME280;45412;54.472;18.464;2023-05-19T10:48:16;101239.96;;;15.94;48.26
59588;BME280;45412;54.472;18.464;2023-05-19T10:51:07;101240.83;;;15.88;48.64
59588;BME280;45412;54.472;18.464;2023-05-19T10:54:02;101245.41;;;15.79;48.94
59588;BME280;45412;54.472;18.464;2023-05-19T10:56:59;101246.63;;;15.75;48.95
59588;BME280;45412;54.472;18.464;2023-05-19T10:59:47;101245.39;;;15.71;49.08
59588;BME280;45412;54.472;18.464;2023-05-19T11:02:43;101243.25;;;15.64;48.72
59588;BME280;45412;54.472;18.464;2023-05-19T11:05:35;101242.58;;;15.57;48.76
59588;BME280;45412;54.472;18.464;2023-05-19T11:08:33;101241.61;;;15.49;48.68
59588;BME280;45412;54.472;18.464;2023-05-19T11:11:23;101242.45;;;15.29;47.91
59588;BME280;45412;54.472;18.464;2023-05-19T11:14:14;101240.74;;;15.09;47.63
59588;BME280;45412;54.472;18.464;2023-05-19T11:17:12;101246.31;;;14.93;48.16
59588;BME280;45412;54.472;18.464;2023-05-19T11:20:01;101244.59;;;14.73;49.06
59588;BME280;45412;54.472;18.464;2023-05-19T11:23:06;101245.73;;;14.61;49.62
59588;BME280;45412;54.472;18.464;2023-05-19T11:25:55;101246.98;;;14.53;50.51
59588;BME280;45412;54.472;18.464;2023-05-19T11:28:46;101244.61;;;14.46;50.37
59588;BME280;45412;54.472;18.464;2023-05-19T11:31:35;101243.30;;;14.36;50.85
59588;BME280;45412;54.472;18.464;2023-05-19T11:34:25;101243.30;;;14.28;51.21
59588;BME280;45412;54.472;18.464;2023-05-19T11:37:15;101244.42;;;14.23;51.39
59588;BME280;45412;54.472;18.464;2023-05-19T11:40:06;101247.91;;;14.22;52.38
59588;BME280;45412;54.472;18.464;2023-05-19T11:42:54;101245.73;;;14.20;52.07
59588;BME280;45412;54.472;18.464;2023-05-19T11:45:44;101249.42;;;14.21;52.33
59588;BME280;45412;54.472;18.464;2023-05-19T11:48:32;101247.23;;;14.24;52.31
59588;BME280;45412;54.472;18.464;2023-05-19T11:51:21;101250.52;;;14.25;52.09
59588;BME280;45412;54.472;18.464;2023-05-19T11:54:11;101254.96;;;14.27;52.10
59588;BME280;45412;54.472;18.464;2023-05-19T11:57:00;101257.68;;;14.37;52.04
59588;BME280;45412;54.472;18.464;2023-05-19T11:59:49;101257.39;;;14.50;51.79
59588;BME280;45412;54.472;18.464;2023-05-19T12:02:40;101260.14;;;14.64;51.78
59588;BME280;45412;54.472;18.464;2023-05-19T12:05:28;101265.38;;;14.79;51.07
59588;BME280;45412;54.472;18.464;2023-05-19T12:08:23;101268.44;;;14.93;50.30
59588;BME280;45412;54.472;18.464;2023-05-19T12:11:13;101270.95;;;14.98;49.07
59588;BME280;45412;54.472;18.464;2023-05-19T12:14:01;101271.38;;;14.97;48.44
59588;BME280;45412;54.472;18.464;2023-05-19T12:16:50;101280.48;;;14.90;48.15
59588;BME280;45412;54.472;18.464;2023-05-19T12:19:48;101275.79;;;14.79;49.08
59588;BME280;45412;54.472;18.464;2023-05-19T12:22:36;101287.77;;;14.86;49.19
59588;BME280;45412;54.472;18.464;2023-05-19T12:25:25;101290.77;;;14.89;49.49
59588;BME280;45412;54.472;18.464;2023-05-19T12:28:15;101292.78;;;14.91;49.38
59588;BME280;45412;54.472;18.464;2023-05-19T12:31:04;101292.08;;;14.95;49.97
59588;BME280;45412;54.472;18.464;2023-05-19T12:33:54;101295.63;;;15.00;49.82
59588;BME280;45412;54.472;18.464;2023-05-19T12:36:44;101294.30;;;15.04;49.40
59588;BME280;45412;54.472;18.464;2023-05-19T12:39:34;101298.23;;;15.08;49.21
59588;BME280;45412;54.472;18.464;2023-05-19T12:42:27;101300.67;;;15.11;49.94
59588;BME280;45412;54.472;18.464;2023-05-19T12:45:23;101299.30;;;15.18;49.60
59588;BME280;45412;54.472;18.464;2023-05-19T12:48:15;101298.23;;;15.18;48.20
59588;BME280;45412;54.472;18.464;2023-05-19T12:51:04;101294.98;;;15.20;47.33
59588;BME280;45412;54.472;18.464;2023-05-19T12:53:53;101296.61;;;15.25;46.91
59588;BME280;45412;54.472;18.464;2023-05-19T12:56:49;101293.71;;;15.34;47.05
59588;BME280;45412;54.472;18.464;2023-05-19T12:59:38;101295.55;;;15.45;47.08
59588;BME280;45412;54.472;18.464;2023-05-19T13:02:32;101292.11;;;15.41;46.32
59588;BME280;45412;54.472;18.464;2023-05-19T13:05:21;101287.72;;;15.35;46.85
59588;BME280;45412;54.472;18.464;2023-05-19T13:08:13;101287.28;;;15.36;47.97
59588;BME280;45412;54.472;18.464;2023-05-19T13:11:03;101287.02;;;15.40;47.97
59588;BME280;45412;54.472;18.464;2023-05-19T13:13:52;101283.38;;;15.36;48.19
59588;BME280;45412;54.472;18.464;2023-05-19T13:16:40;101282.38;;;15.26;48.05
59588;BME280;45412;54.472;18.464;2023-05-19T13:19:29;101276.98;;;15.15;48.81
59588;BME280;45412;54.472;18.464;2023-05-19T13:22:17;101280.73;;;15.06;49.63
59588;BME280;45412;54.472;18.464;2023-05-19T13:25:07;101279.70;;;15.00;49.10
59588;BME280;45412;54.472;18.464;2023-05-19T13:27:56;101277.08;;;14.97;49.67
59588;BME280;45412;54.472;18.464;2023-05-19T13:30:46;101276.84;;;14.98;49.88
59588;BME280;45412;54.472;18.464;2023-05-19T13:33:36;101268.91;;;14.94;48.58
59588;BME280;45412;54.472;18.464;2023-05-19T13:36:25;101269.60;;;14.90;49.18
59588;BME280;45412;54.472;18.464;2023-05-19T13:39:18;101265.07;;;14.88;50.28
59588;BME280;45412;54.472;18.464;2023-05-19T13:42:06;101266.05;;;14.92;49.82
59588;BME280;45412;54.472;18.464;2023-05-19T13:44:56;101269.36;;;14.86;48.73
59588;BME280;45412;54.472;18.464;2023-05-19T13:47:45;101269.73;;;14.77;49.27
59588;BME280;45412;54.472;18.464;2023-05-19T13:50:33;101265.33;;;14.69;50.01
59588;BME280;45412;54.472;18.464;2023-05-19T13:53:21;101264.84;;;14.73;50.54
59588;BME280;45412;54.472;18.464;2023-05-19T13:56:13;101265.27;;;14.76;50.53
59588;BME280;45412;54.472;18.464;2023-05-19T13:59:02;101258.64;;;14.79;51.35
59588;BME280;45412;54.472;18.464;2023-05-19T14:01:50;101256.84;;;14.84;51.38
59588;BME280;45412;54.472;18.464;2023-05-19T14:04:40;101253.36;;;14.83;51.37
59588;BME280;45412;54.472;18.464;2023-05-19T14:07:29;101254.92;;;14.81;51.48
59588;BME280;45412;54.472;18.464;2023-05-19T14:10:18;101253.92;;;14.80;51.59
59588;BME280;45412;54.472;18.464;2023-05-19T14:13:09;101255.73;;;14.75;50.79
59588;BME280;45412;54.472;18.464;2023-05-19T14:16:19;101249.00;;;14.60;50.38
59588;BME280;45412;54.472;18.464;2023-05-19T14:19:10;101249.52;;;14.50;51.02
59588;BME280;45412;54.472;18.464;2023-05-19T14:21:58;101253.89;;;14.42;52.20
59588;BME280;45412;54.472;18.464;2023-05-19T14:24:47;101255.73;;;14.27;51.16
59588;BME280;45412;54.472;18.464;2023-05-19T14:27:39;101259.71;;;14.12;51.64
59588;BME280;45412;54.472;18.464;2023-05-19T14:30:27;101258.42;;;14.00;52.89
59588;BME280;45412;54.472;18.464;2023-05-19T14:33:17;101256.23;;;13.88;53.75
59588;BME280;45412;54.472;18.464;2023-05-19T14:36:09;101260.04;;;13.78;54.40
59588;BME280;45412;54.472;18.464;2023-05-19T14:38:57;101262.58;;;13.70;55.66
59588;BME280;45412;54.472;18.464;2023-05-19T14:41:45;101263.43;;;13.60;55.38
59588;BME280;45412;54.472;18.464;2023-05-19T14:44:38;101265.48;;;13.49;55.37
59588;BME280;45412;54.472;18.464;2023-05-19T14:47:49;101264.64;;;13.38;55.81
59588;BME280;45412;54.472;18.464;2023-05-19T14:50:45;101264.69;;;13.24;55.66
59588;BME280;45412;54.472;18.464;2023-05-19T14:53:37;101267.74;;;13.13;56.17
59588;BME280;45412;54.472;18.464;2023-05-19T14:56:29;101261.75;;;12.97;57.18
59588;BME280;45412;54.472;18.464;2023-05-19T14:59:20;101261.63;;;12.80;58.18
59588;BME280;45412;54.472;18.464;2023-05-19T15:02:10;101259.45;;;12.70;59.14
59588;BME280;45412;54.472;18.464;2023-05-19T15:05:01;101258.36;;;12.62;59.64
59588;BME280;45412;54.472;18.464;2023-05-19T15:07:55;101250.87;;;12.52;59.19
59588;BME280;45412;54.472;18.464;2023-05-19T15:10:48;101250.96;;;12.42;59.27
59588;BME280;45412;54.472;18.464;2023-05-19T15:13:37;101248.74;;;12.36;59.22